createdAt,value
2023-01-26T00:01:29.100Z,102011.53
2023-01-26T00:03:57.233Z,102007.16
2023-01-26T00:06:25.412Z,102006.25
2023-01-26T00:08:54.966Z,102000.91
2023-01-26T00:11:26.690Z,101991.25
2023-01-26T00:13:55.293Z,101991.22
2023-01-26T00:16:22.357Z,101970.16
2023-01-26T00:18:49.445Z,101973.63
2023-01-26T00:21:21.912Z,101963.09
2023-01-26T00:23:49.721Z,101966.56
2023-01-26T00:26:24.124Z,101958.66
2023-01-26T00:28:52.307Z,101965.63
2023-01-26T00:31:25.382Z,101979.69
2023-01-26T00:33:56.975Z,101981.41
2023-01-26T00:36:24.181Z,101974.38
2023-01-26T00:38:51.082Z,101970.88
2023-01-26T00:41:36.516Z,101972.59
2023-01-26T00:44:03.615Z,101970.03
2023-01-26T00:46:30.553Z,101971.75
2023-01-26T00:48:57.557Z,101967.34
2023-01-26T00:51:24.501Z,101967.31
2023-01-26T00:53:51.474Z,101970.81
2023-01-26T00:56:19.211Z,101962.03
2023-01-26T00:58:46.357Z,101970.84
2023-01-26T01:01:13.315Z,101961.13
2023-01-26T01:03:42.699Z,101955.91
2023-01-26T01:06:09.606Z,101954.13
2023-01-26T01:08:36.527Z,101966.38
2023-01-26T01:11:10.222Z,101954.09
2023-01-26T01:13:37.946Z,101956.72
2023-01-26T01:16:10.747Z,101943.53
2023-01-26T01:18:38.321Z,101953.13
2023-01-26T01:21:11.112Z,101953.13
2023-01-26T01:23:38.534Z,101956.66
2023-01-26T01:26:06.413Z,101947.91
2023-01-26T01:28:35.371Z,101948.78
2023-01-26T01:31:12.948Z,101932.09
2023-01-26T01:33:40.062Z,101931.19
2023-01-26T01:36:11.959Z,101939.97
2023-01-26T01:38:39.238Z,101947.03
2023-01-26T01:41:07.482Z,101937.38
2023-01-26T01:43:36.295Z,101925.94
2023-01-26T01:46:28.287Z,101933.84
2023-01-26T01:49:20.568Z,101919.81
2023-01-26T01:51:56.145Z,101935.59
2023-01-26T01:54:31.149Z,101932.06
2023-01-26T01:57:03.593Z,101918.88
2023-01-26T01:59:32.878Z,101922.38
2023-01-26T02:01:59.987Z,101921.47
2023-01-26T02:04:27.530Z,101910.91
2023-01-26T02:06:57.623Z,101910.91
2023-01-26T02:09:52.251Z,101911.81
2023-01-26T02:12:25.982Z,101910.00
2023-01-26T02:14:53.598Z,101917.91
2023-01-26T02:17:21.786Z,101917.00
2023-01-26T02:20:29.480Z,101914.31
2023-01-26T02:23:16.901Z,101900.31
2023-01-26T02:25:50.032Z,101916.16
2023-01-26T02:28:17.963Z,101909.16
2023-01-26T02:30:45.870Z,101916.22
2023-01-26T02:33:27.473Z,101912.69
2023-01-26T02:35:59.112Z,101895.09
2023-01-26T02:38:39.292Z,101896.00
2023-01-26T02:41:13.769Z,101907.41
2023-01-26T02:43:41.003Z,101896.00
2023-01-26T02:46:08.029Z,101902.97
2023-01-26T02:48:57.066Z,101900.28
2023-01-26T02:51:24.046Z,101889.75
2023-01-26T02:53:51.815Z,101884.47
2023-01-26T02:56:18.736Z,101890.56
2023-01-26T02:58:45.690Z,101894.09
2023-01-26T03:01:12.716Z,101898.47
2023-01-26T03:03:46.947Z,101895.84
2023-01-26T03:06:15.504Z,101889.69
2023-01-26T03:08:42.755Z,101885.34
2023-01-26T03:11:10.095Z,101895.03
2023-01-26T03:13:37.603Z,101890.63
2023-01-26T03:16:08.494Z,101893.31
2023-01-26T03:18:54.733Z,101880.13
2023-01-26T03:21:41.138Z,101880.94
2023-01-26T03:24:34.038Z,101895.00
2023-01-26T03:27:22.737Z,101887.13
2023-01-26T03:29:51.494Z,101892.34
2023-01-26T03:32:18.807Z,101890.59
2023-01-26T03:34:46.742Z,101888.84
2023-01-26T03:37:13.675Z,101886.22
2023-01-26T03:40:11.812Z,101892.34
2023-01-26T03:42:57.905Z,101887.91
2023-01-26T03:45:43.458Z,101879.16
2023-01-26T03:48:31.225Z,101888.81
2023-01-26T03:51:18.234Z,101889.63
2023-01-26T03:54:04.187Z,101883.50
2023-01-26T03:56:34.031Z,101888.78
2023-01-26T03:59:08.968Z,101883.50
2023-01-26T04:02:03.778Z,101880.75
2023-01-26T04:04:50.948Z,101869.34
2023-01-26T04:07:38.560Z,101873.69
2023-01-26T04:10:06.749Z,101874.59
2023-01-26T04:12:33.978Z,101870.25
2023-01-26T04:15:33.857Z,101870.25
2023-01-26T04:18:26.355Z,101864.97
2023-01-26T04:21:12.743Z,101870.28
2023-01-26T04:23:41.913Z,101875.47
2023-01-26T04:26:08.831Z,101870.19
2023-01-26T04:28:36.932Z,101864.06
2023-01-26T04:31:04.692Z,101864.97
2023-01-26T04:33:35.183Z,101864.84
2023-01-26T04:36:07.764Z,101862.22
2023-01-26T04:38:37.593Z,101855.19
2023-01-26T04:41:04.924Z,101858.72
2023-01-26T04:43:37.815Z,101857.84
2023-01-26T04:46:08.069Z,101858.72
2023-01-26T04:48:36.434Z,101857.88
2023-01-26T04:51:06.965Z,101856.19
2023-01-26T04:53:34.667Z,101856.16
2023-01-26T04:56:01.936Z,101852.66
2023-01-26T04:58:29.992Z,101852.69
2023-01-26T05:00:58.501Z,101851.84
2023-01-26T05:03:26.642Z,101846.56
2023-01-26T05:05:55.137Z,101856.22
2023-01-26T05:08:24.595Z,101856.22
2023-01-26T05:10:52.326Z,101850.03
2023-01-26T05:13:23.215Z,101844.81
2023-01-26T05:16:13.895Z,101844.75
2023-01-26T05:18:59.808Z,101838.56
2023-01-26T05:21:50.729Z,101850.09
2023-01-26T05:24:17.827Z,101848.28
2023-01-26T05:27:18.395Z,101839.47
2023-01-26T05:29:48.613Z,101835.94
2023-01-26T05:32:15.674Z,101842.06
2023-01-26T05:34:42.597Z,101838.53
2023-01-26T05:37:10.892Z,101850.81
2023-01-26T05:39:42.119Z,101859.59
2023-01-26T05:42:12.490Z,101856.09
2023-01-26T05:44:59.712Z,101859.56
2023-01-26T05:47:28.070Z,101865.78
2023-01-26T05:49:55.171Z,101867.47
2023-01-26T05:52:26.211Z,101859.56
2023-01-26T05:54:53.199Z,101856.91
2023-01-26T05:57:20.271Z,101852.53
2023-01-26T05:59:51.487Z,101854.28
2023-01-26T06:02:18.483Z,101848.25
2023-01-26T06:04:45.695Z,101850.81
2023-01-26T06:07:15.757Z,101854.28
2023-01-26T06:09:47.606Z,101858.69
2023-01-26T06:12:35.489Z,101850.81
2023-01-26T06:15:12.664Z,101860.41
2023-01-26T06:17:43.679Z,101856.84
2023-01-26T06:20:14.710Z,101850.69
2023-01-26T06:22:44.909Z,101861.25
2023-01-26T06:25:11.811Z,101858.63
2023-01-26T06:27:42.083Z,101856.84
2023-01-26T06:30:16.017Z,101863.03
2023-01-26T06:32:43.009Z,101866.53
2023-01-26T06:35:10.405Z,101857.72
2023-01-26T06:37:38.144Z,101855.91
2023-01-26T06:40:05.776Z,101857.72
2023-01-26T06:42:32.762Z,101850.59
2023-01-26T06:44:59.986Z,101856.78
2023-01-26T06:47:26.948Z,101854.94
2023-01-26T06:49:54.316Z,101850.53
2023-01-26T06:52:28.271Z,101862.81
2023-01-26T06:55:03.676Z,101855.81
2023-01-26T06:57:47.187Z,101854.00
2023-01-26T07:00:52.815Z,101861.06
2023-01-26T07:03:40.035Z,101861.06
2023-01-26T07:06:07.955Z,101858.41
2023-01-26T07:08:34.858Z,101855.84
2023-01-26T07:11:01.931Z,101855.81
2023-01-26T07:13:29.763Z,101867.25
2023-01-26T07:16:05.533Z,101863.72
2023-01-26T07:18:33.183Z,101860.16
2023-01-26T07:21:10.450Z,101858.41
2023-01-26T07:23:37.565Z,101868.03
2023-01-26T07:26:04.976Z,101869.75
2023-01-26T07:28:34.152Z,101860.22
2023-01-26T07:31:02.570Z,101869.81
2023-01-26T07:33:30.099Z,101863.69
2023-01-26T07:35:57.923Z,101872.47
2023-01-26T07:38:25.541Z,101877.75
2023-01-26T07:40:52.771Z,101868.94
2023-01-26T07:43:19.654Z,101871.56
2023-01-26T07:45:53.454Z,101872.41
2023-01-26T07:48:23.838Z,101875.88
2023-01-26T07:50:51.284Z,101866.22
2023-01-26T07:53:22.853Z,101874.09
2023-01-26T07:55:49.936Z,101865.28
2023-01-26T07:58:18.677Z,101869.63
2023-01-26T08:00:49.003Z,101871.34
2023-01-26T08:03:15.935Z,101875.75
2023-01-26T08:05:43.319Z,101866.06
2023-01-26T08:08:10.965Z,101869.56
2023-01-26T08:10:38.192Z,101873.13
2023-01-26T08:13:05.216Z,101880.13
2023-01-26T08:15:32.162Z,101870.41
2023-01-26T08:17:59.106Z,101871.28
2023-01-26T08:20:26.003Z,101869.50
2023-01-26T08:22:54.175Z,101873.88
2023-01-26T08:25:21.059Z,101877.34
2023-01-26T08:27:47.928Z,101879.97
2023-01-26T08:30:15.852Z,101885.25
2023-01-26T08:32:43.277Z,101881.66
2023-01-26T08:35:10.436Z,101874.56
2023-01-26T08:37:37.339Z,101878.06
2023-01-26T08:40:04.632Z,101874.50
2023-01-26T08:42:32.072Z,101880.59
2023-01-26T08:44:59.012Z,101893.59
2023-01-26T08:47:25.934Z,101881.72
2023-01-26T08:49:52.857Z,101877.88
2023-01-26T08:52:21.560Z,101874.44
2023-01-26T08:54:48.476Z,101860.78
2023-01-26T08:57:15.466Z,101861.44
2023-01-26T08:59:42.359Z,101860.22
2023-01-26T09:02:11.099Z,101873.84
2023-01-26T09:04:38.048Z,101873.78
2023-01-26T09:07:05.985Z,101864.84
2023-01-26T09:09:32.884Z,101876.97
2023-01-26T09:11:59.763Z,101873.66
2023-01-26T09:14:27.432Z,101871.22
2023-01-26T09:16:54.409Z,101867.84
2023-01-26T09:19:21.572Z,101874.97
2023-01-26T09:21:53.889Z,101882.88
2023-01-26T09:24:24.358Z,101887.00
2023-01-26T09:26:52.377Z,101893.59
2023-01-26T09:29:19.319Z,101888.72
2023-01-26T09:31:46.326Z,101891.63
2023-01-26T09:34:13.351Z,101886.47
2023-01-26T09:36:41.541Z,101891.84
2023-01-26T09:39:08.511Z,101882.31
2023-01-26T09:42:01.536Z,101885.91
2023-01-26T09:44:44.460Z,101889.38
2023-01-26T09:47:42.035Z,101885.00
2023-01-26T09:50:20.051Z,101892.06
2023-01-26T09:53:04.471Z,101880.66
2023-01-26T09:55:31.761Z,101880.56
2023-01-26T09:58:06.570Z,101880.56
2023-01-26T10:00:55.456Z,101894.59
2023-01-26T10:04:01.429Z,101888.34
2023-01-26T10:06:31.565Z,101890.22
2023-01-26T10:09:27.826Z,101878.84
2023-01-26T10:12:03.249Z,101877.91
2023-01-26T10:14:40.583Z,101879.63
2023-01-26T10:17:20.175Z,101878.78
2023-01-26T10:19:57.232Z,101875.22
2023-01-26T10:22:48.529Z,101868.97
2023-01-26T10:25:40.070Z,101867.16
2023-01-26T10:28:28.424Z,101861.88
2023-01-26T10:30:55.815Z,101851.69
2023-01-26T10:33:35.266Z,101854.00
2023-01-26T10:36:06.125Z,101856.34
2023-01-26T10:38:32.921Z,101849.22
2023-01-26T10:41:22.147Z,101849.38
2023-01-26T10:43:54.683Z,101854.28
2023-01-26T10:46:27.995Z,101850.66
2023-01-26T10:49:17.590Z,101830.53
2023-01-26T10:51:48.056Z,101839.22
2023-01-26T10:54:27.445Z,101836.28
2023-01-26T10:57:00.529Z,101848.22
2023-01-26T10:59:38.993Z,101844.66
2023-01-26T11:02:11.901Z,101847.72
2023-01-26T11:04:39.966Z,101851.09
2023-01-26T11:07:26.571Z,101852.59
2023-01-26T11:09:54.730Z,101848.66
2023-01-26T11:12:25.884Z,101839.38
2023-01-26T11:15:16.681Z,101861.53
2023-01-26T11:18:01.816Z,101843.16
2023-01-26T11:20:38.277Z,101851.09
2023-01-26T11:23:36.384Z,101846.75
2023-01-26T11:26:13.964Z,101846.78
2023-01-26T11:29:04.170Z,101840.63
2023-01-26T11:31:53.262Z,101845.03
2023-01-26T11:35:08.245Z,101850.34
2023-01-26T11:38:00.886Z,101843.28
2023-01-26T11:40:53.198Z,101841.53
2023-01-26T11:44:05.895Z,101838.91
2023-01-26T11:47:02.864Z,101842.38
2023-01-26T11:50:18.080Z,101837.84
2023-01-26T11:53:20.323Z,101836.09
2023-01-26T11:56:02.871Z,101826.34
2023-01-26T11:58:41.389Z,101832.44
2023-01-26T12:01:20.989Z,101824.44
2023-01-26T12:03:51.748Z,101811.28
2023-01-26T12:06:40.974Z,101809.41
2023-01-26T12:09:32.607Z,101802.34
2023-01-26T12:12:13.949Z,101806.78
2023-01-26T12:15:05.975Z,101798.78
2023-01-26T12:17:48.665Z,101806.69
2023-01-26T12:20:40.998Z,101796.19
2023-01-26T12:23:39.320Z,101794.38
2023-01-26T12:26:13.554Z,101796.16
2023-01-26T12:28:55.464Z,101784.59
2023-01-26T12:31:57.733Z,101781.88
2023-01-26T12:34:33.579Z,101773.09
2023-01-26T12:37:40.782Z,101761.63
2023-01-26T12:41:08.875Z,101773.03
2023-01-26T12:43:58.917Z,101766.84
2023-01-26T12:46:32.198Z,101767.63
2023-01-26T12:49:16.549Z,101758.88
2023-01-26T12:51:51.834Z,101759.69
2023-01-26T12:54:45.051Z,101764.94
2023-01-26T12:57:28.580Z,101765.78
2023-01-26T13:00:14.954Z,101771.88
2023-01-26T13:02:48.234Z,101754.97
2023-01-26T13:05:36.006Z,101769.88
2023-01-26T13:08:30.872Z,101763.56
2023-01-26T13:11:04.742Z,101760.88
2023-01-26T13:13:56.880Z,101757.22
2023-01-26T13:16:33.060Z,101751.91
2023-01-26T13:19:02.104Z,101760.66
2023-01-26T13:21:38.198Z,101757.00
2023-01-26T13:24:16.969Z,101757.00
2023-01-26T13:27:02.152Z,101759.59
2023-01-26T13:29:32.623Z,101755.06
2023-01-26T13:32:21.379Z,101755.88
2023-01-26T13:34:54.500Z,101757.63
2023-01-26T13:37:34.003Z,101769.88
2023-01-26T13:40:06.910Z,101760.09
2023-01-26T13:42:40.405Z,101760.97
2023-01-26T13:46:00.591Z,101753.78
2023-01-26T13:48:40.114Z,101753.56
2023-01-26T13:51:13.032Z,101751.81
2023-01-26T13:54:02.022Z,101742.16
2023-01-26T13:56:41.734Z,101752.66
2023-01-26T13:59:17.415Z,101749.03
2023-01-26T14:01:47.423Z,101756.88
2023-01-26T14:04:30.919Z,101761.25
2023-01-26T14:07:05.821Z,101759.44
2023-01-26T14:09:43.713Z,101754.81
2023-01-26T14:12:22.017Z,101761.88
2023-01-26T14:14:52.396Z,101755.53
2023-01-26T14:17:57.054Z,101756.41
2023-01-26T14:20:28.100Z,101765.25
2023-01-26T14:23:15.657Z,101761.72
2023-01-26T14:25:57.826Z,101762.53
2023-01-26T14:28:31.223Z,101759.75
2023-01-26T14:31:17.234Z,101766.75
2023-01-26T14:33:44.503Z,101764.03
2023-01-26T14:36:20.532Z,101762.19
2023-01-26T14:38:51.657Z,101761.22
2023-01-26T14:41:26.304Z,101769.94
2023-01-26T14:43:58.662Z,101769.03
2023-01-26T14:47:11.473Z,101767.19
2023-01-26T14:50:02.651Z,101764.50
2023-01-26T14:52:39.419Z,101776.84
2023-01-26T14:55:17.126Z,101769.81
2023-01-26T14:57:47.053Z,101768.03
2023-01-26T15:00:28.421Z,101764.41
2023-01-26T15:02:57.969Z,101770.56
2023-01-26T15:05:37.639Z,101771.41
2023-01-26T15:08:17.468Z,101779.38
2023-01-26T15:11:19.072Z,101778.41
2023-01-26T15:13:56.278Z,101772.19
2023-01-26T15:16:26.433Z,101772.25
2023-01-26T15:19:01.400Z,101765.84
2023-01-26T15:21:40.121Z,101778.22
2023-01-26T15:24:13.744Z,101772.91
2023-01-26T15:26:41.487Z,101765.00
2023-01-26T15:29:32.291Z,101759.69
2023-01-26T15:32:00.279Z,101758.66
2023-01-26T15:34:37.463Z,101765.84
2023-01-26T15:37:30.180Z,101760.53
2023-01-26T15:39:57.255Z,101757.09
2023-01-26T15:42:32.840Z,101756.94
2023-01-26T15:45:00.215Z,101764.78
2023-01-26T15:47:27.226Z,101755.03
2023-01-26T15:49:54.245Z,101756.72
2023-01-26T15:52:25.795Z,101759.31
2023-01-26T15:54:53.891Z,101749.63
2023-01-26T15:57:20.831Z,101741.72
2023-01-26T15:59:47.711Z,101750.50
2023-01-26T16:02:17.813Z,101755.75
2023-01-26T16:04:48.457Z,101752.22
2023-01-26T16:07:17.900Z,101751.41
2023-01-26T16:09:44.849Z,101746.97
2023-01-26T16:12:35.999Z,101745.25
2023-01-26T16:15:06.327Z,101750.44
2023-01-26T16:17:33.301Z,101752.28
2023-01-26T16:20:00.540Z,101754.06
2023-01-26T16:22:27.427Z,101748.75
2023-01-26T16:24:54.401Z,101756.63
2023-01-26T16:27:21.625Z,101749.66
2023-01-26T16:29:48.564Z,101767.94
2023-01-26T16:32:29.449Z,101760.84
2023-01-26T16:34:56.684Z,101764.34
2023-01-26T16:37:23.627Z,101760.81
2023-01-26T16:39:50.606Z,101766.03
2023-01-26T16:42:20.087Z,101757.28
2023-01-26T16:44:47.713Z,101773.13
2023-01-26T16:47:14.804Z,101774.09
2023-01-26T16:49:41.684Z,101775.78
2023-01-26T16:52:09.898Z,101771.44
2023-01-26T16:54:36.995Z,101776.59
2023-01-26T16:57:04.049Z,101770.47
2023-01-26T16:59:31.122Z,101772.22
2023-01-26T17:01:58.112Z,101774.84
2023-01-26T17:04:25.106Z,101781.94
2023-01-26T17:06:52.223Z,101778.31
2023-01-26T17:09:20.567Z,101787.13
2023-01-26T17:11:47.606Z,101776.50
2023-01-26T17:14:14.564Z,101785.38
2023-01-26T17:16:41.573Z,101781.91
2023-01-26T17:19:09.341Z,101787.19
2023-01-26T17:21:36.606Z,101784.47
2023-01-26T17:24:03.855Z,101786.28
2023-01-26T17:26:30.989Z,101788.03
2023-01-26T17:28:57.928Z,101781.91
2023-01-26T17:31:25.767Z,101784.53
2023-01-26T17:33:52.726Z,101790.69
2023-01-26T17:36:20.412Z,101779.22
2023-01-26T17:38:48.720Z,101786.28
2023-01-26T17:41:17.067Z,101798.66
2023-01-26T17:43:44.109Z,101790.69
2023-01-26T17:46:16.538Z,101786.28
2023-01-26T17:48:45.538Z,101794.13
2023-01-26T17:51:19.735Z,101793.34
2023-01-26T17:53:54.181Z,101795.88
2023-01-26T17:56:22.295Z,101787.06
2023-01-26T17:58:52.084Z,101797.59
2023-01-26T18:01:20.553Z,101793.09
2023-01-26T18:03:47.949Z,101797.44
2023-01-26T18:06:15.033Z,101791.22
2023-01-26T18:08:42.366Z,101803.47
2023-01-26T18:11:14.192Z,101806.00
2023-01-26T18:13:41.649Z,101803.25
2023-01-26T18:16:12.244Z,101798.72
2023-01-26T18:18:39.245Z,101799.38
2023-01-26T18:21:29.092Z,101810.66
2023-01-26T18:24:02.394Z,101810.44
2023-01-26T18:26:33.348Z,101809.47
2023-01-26T18:29:00.504Z,101796.19
2023-01-26T18:31:32.240Z,101810.31
2023-01-26T18:34:01.439Z,101800.59
2023-01-26T18:36:29.200Z,101812.00
2023-01-26T18:38:59.729Z,101807.47
2023-01-26T18:41:28.536Z,101806.47
2023-01-26T18:43:59.749Z,101812.59
2023-01-26T18:46:28.480Z,101810.75
2023-01-26T18:49:00.622Z,101816.06
2023-01-26T18:51:29.965Z,101816.00
2023-01-26T18:53:57.605Z,101816.00
2023-01-26T18:56:24.764Z,101812.44
2023-01-26T18:58:53.582Z,101814.31
2023-01-26T19:01:21.527Z,101819.56
2023-01-26T19:03:55.130Z,101828.34
2023-01-26T19:06:24.643Z,101829.16
2023-01-26T19:09:02.597Z,101824.81
2023-01-26T19:11:36.259Z,101826.50
2023-01-26T19:14:04.646Z,101834.34
2023-01-26T19:16:32.487Z,101834.44
2023-01-26T19:18:59.808Z,101846.06
2023-01-26T19:21:27.622Z,101852.22
2023-01-26T19:23:58.376Z,101839.81
2023-01-26T19:26:29.253Z,101846.06
2023-01-26T19:28:56.602Z,101838.25
2023-01-26T19:31:26.188Z,101847.81
2023-01-26T19:33:55.327Z,101856.63
2023-01-26T19:36:23.387Z,101839.94
2023-01-26T19:38:50.572Z,101849.75
2023-01-26T19:41:18.544Z,101849.72
2023-01-26T19:43:45.466Z,101843.66
2023-01-26T19:46:15.257Z,101856.06
2023-01-26T19:48:42.649Z,101848.06
2023-01-26T19:51:14.736Z,101850.75
2023-01-26T19:53:45.269Z,101852.56
2023-01-26T19:56:16.320Z,101860.50
2023-01-26T19:58:51.426Z,101854.25
2023-01-26T20:01:18.565Z,101846.28
2023-01-26T20:03:54.781Z,101854.22
2023-01-26T20:06:25.131Z,101850.69
2023-01-26T20:08:54.535Z,101847.03
2023-01-26T20:11:25.070Z,101834.84
2023-01-26T20:13:57.122Z,101846.19
2023-01-26T20:16:27.874Z,101851.50
2023-01-26T20:18:56.535Z,101853.25
2023-01-26T20:21:24.014Z,101850.59
2023-01-26T20:23:54.821Z,101850.47
2023-01-26T20:26:25.103Z,101839.84
2023-01-26T20:28:52.732Z,101845.06
2023-01-26T20:31:23.499Z,101856.56
2023-01-26T20:33:53.371Z,101856.56
2023-01-26T20:36:24.667Z,101853.84
2023-01-26T20:38:52.010Z,101857.34
2023-01-26T20:41:23.789Z,101864.28
2023-01-26T20:43:59.896Z,101854.53
2023-01-26T20:46:39.514Z,101866.16
2023-01-26T20:49:09.650Z,101868.69
2023-01-26T20:51:38.279Z,101867.00
2023-01-26T20:54:07.596Z,101879.50
2023-01-26T20:56:35.618Z,101868.97
2023-01-26T20:59:03.015Z,101884.94
2023-01-26T21:01:30.246Z,101885.91
2023-01-26T21:03:57.349Z,101886.75
2023-01-26T21:06:24.616Z,101887.72
2023-01-26T21:08:54.823Z,101891.38
2023-01-26T21:11:26.092Z,101890.59
2023-01-26T21:13:55.858Z,101896.91
2023-01-26T21:16:24.353Z,101899.69
2023-01-26T21:18:52.795Z,101893.59
2023-01-26T21:21:21.631Z,101891.00
2023-01-26T21:23:49.719Z,101902.22
2023-01-26T21:26:21.908Z,101895.06
2023-01-26T21:28:54.200Z,101903.19
2023-01-26T21:31:23.489Z,101906.00
2023-01-26T21:33:51.209Z,101899.25
2023-01-26T21:36:24.020Z,101907.34
2023-01-26T21:38:53.004Z,101907.53
2023-01-26T21:41:45.514Z,101903.13
2023-01-26T21:44:21.956Z,101912.13
2023-01-26T21:46:52.768Z,101901.56
2023-01-26T21:49:20.748Z,101901.63
2023-01-26T21:52:06.149Z,101898.19
2023-01-26T21:54:33.896Z,101906.09
2023-01-26T21:57:03.040Z,101905.25
2023-01-26T21:59:30.454Z,101901.81
2023-01-26T22:01:58.572Z,101910.69
2023-01-26T22:04:29.532Z,101921.22
2023-01-26T22:06:57.175Z,101927.44
2023-01-26T22:09:24.495Z,101923.09
2023-01-26T22:11:52.007Z,101929.19
2023-01-26T22:14:24.947Z,101916.84
2023-01-26T22:16:52.127Z,101914.22
2023-01-26T22:19:19.131Z,101909.72
2023-01-26T22:21:46.016Z,101921.22
2023-01-26T22:24:14.837Z,101907.97
2023-01-26T22:26:42.422Z,101910.59
2023-01-26T22:29:12.580Z,101919.47
2023-01-26T22:31:39.663Z,101913.22
2023-01-26T22:34:06.885Z,101898.31
2023-01-26T22:36:33.903Z,101910.56
2023-01-26T22:39:00.861Z,101913.22
2023-01-26T22:41:30.068Z,101905.31
2023-01-26T22:43:59.833Z,101907.91
2023-01-26T22:46:29.690Z,101908.78
2023-01-26T22:48:58.134Z,101921.44
2023-01-26T22:51:31.261Z,101905.56
2023-01-26T22:53:59.419Z,101909.25
2023-01-26T22:56:27.574Z,101918.25
2023-01-26T22:59:00.486Z,101924.00
2023-01-26T23:01:33.039Z,101921.75
2023-01-26T23:04:01.581Z,101915.84
2023-01-26T23:06:28.774Z,101925.13
2023-01-26T23:08:58.037Z,101926.25
2023-01-26T23:11:28.359Z,101924.63
2023-01-26T23:13:57.940Z,101919.44
2023-01-26T23:16:25.945Z,101929.22
2023-01-26T23:18:56.941Z,101914.19
2023-01-26T23:21:25.913Z,101916.84
2023-01-26T23:23:52.805Z,101921.38
2023-01-26T23:26:20.449Z,101917.03
2023-01-26T23:28:47.848Z,101924.16
2023-01-26T23:31:17.031Z,101918.13
2023-01-26T23:33:44.686Z,101915.66
2023-01-26T23:36:13.258Z,101918.25
2023-01-26T23:38:40.611Z,101927.09
2023-01-26T23:41:10.438Z,101924.44
2023-01-26T23:43:37.845Z,101922.72
2023-01-26T23:46:07.471Z,101916.56
2023-01-26T23:48:34.658Z,101920.91
2023-01-26T23:51:06.385Z,101927.09
2023-01-26T23:53:34.198Z,101937.78
2023-01-26T23:56:07.109Z,101927.97
2023-01-26T23:58:34.026Z,101927.22
